sensor_id;sensor_type;location;lat;lon;timestamp;P1;durP1;ratioP1;P2;durP2;ratioP2
10132;SDS011;5106;50.926;7.080;2022-12-10T00:01:30;22.03;;;15.23;;
10132;SDS011;5106;50.926;7.080;2022-12-10T00:03:57;21.67;;;14.90;;
10132;SDS011;5106;50.926;7.080;2022-12-10T00:06:27;22.57;;;15.20;;
10132;SDS011;5106;50.926;7.080;2022-12-10T00:08:55;18.70;;;13.50;;
10132;SDS011;5106;50.926;7.080;2022-12-10T00:11:21;21.87;;;14.73;;
10132;SDS011;5106;50.926;7.080;2022-12-10T00:13:48;16.73;;;12.33;;
10132;SDS011;5106;50.926;7.080;2022-12-10T00:16:14;17.93;;;13.03;;
10132;SDS011;5106;50.926;7.080;2022-12-10T00:18:42;20.80;;;13.80;;
10132;SDS011;5106;50.926;7.080;2022-12-10T00:21:09;18.17;;;13.33;;
10132;SDS011;5106;50.926;7.080;2022-12-10T00:23:36;17.27;;;12.73;;
10132;SDS011;5106;50.926;7.080;2022-12-10T00:26:12;17.97;;;12.77;;
10132;SDS011;5106;50.926;7.080;2022-12-10T00:28:39;18.03;;;12.10;;
10132;SDS011;5106;50.926;7.080;2022-12-10T00:31:07;17.23;;;13.03;;
10132;SDS011;5106;50.926;7.080;2022-12-10T00:33:34;17.17;;;12.40;;
10132;SDS011;5106;50.926;7.080;2022-12-10T00:36:04;18.40;;;12.30;;
10132;SDS011;5106;50.926;7.080;2022-12-10T00:38:31;18.60;;;11.80;;
10132;SDS011;5106;50.926;7.080;2022-12-10T00:40:57;16.90;;;11.97;;
10132;SDS011;5106;50.926;7.080;2022-12-10T00:43:22;18.00;;;12.27;;
10132;SDS011;5106;50.926;7.080;2022-12-10T00:45:48;15.80;;;12.37;;
10132;SDS011;5106;50.926;7.080;2022-12-10T00:48:14;16.77;;;12.40;;
10132;SDS011;5106;50.926;7.080;2022-12-10T00:50:39;15.67;;;11.70;;
10132;SDS011;5106;50.926;7.080;2022-12-10T00:53:05;17.50;;;12.50;;
10132;SDS011;5106;50.926;7.080;2022-12-10T00:55:30;16.60;;;12.17;;
10132;SDS011;5106;50.926;7.080;2022-12-10T00:57:56;18.63;;;12.47;;
10132;SDS011;5106;50.926;7.080;2022-12-10T01:00:21;18.20;;;12.57;;
10132;SDS011;5106;50.926;7.080;2022-12-10T01:02:47;18.17;;;12.50;;
10132;SDS011;5106;50.926;7.080;2022-12-10T01:05:12;17.97;;;12.57;;
10132;SDS011;5106;50.926;7.080;2022-12-10T01:07:38;17.30;;;12.03;;
10132;SDS011;5106;50.926;7.080;2022-12-10T01:10:04;18.00;;;11.57;;
10132;SDS011;5106;50.926;7.080;2022-12-10T01:12:29;19.30;;;12.77;;
10132;SDS011;5106;50.926;7.080;2022-12-10T01:14:55;16.87;;;11.87;;
10132;SDS011;5106;50.926;7.080;2022-12-10T01:17:20;17.53;;;12.03;;
10132;SDS011;5106;50.926;7.080;2022-12-10T01:19:46;19.50;;;12.93;;
10132;SDS011;5106;50.926;7.080;2022-12-10T01:22:12;16.93;;;12.53;;
10132;SDS011;5106;50.926;7.080;2022-12-10T01:24:38;16.77;;;11.57;;
10132;SDS011;5106;50.926;7.080;2022-12-10T01:27:04;17.03;;;11.87;;
10132;SDS011;5106;50.926;7.080;2022-12-10T01:29:29;17.50;;;11.67;;
10132;SDS011;5106;50.926;7.080;2022-12-10T01:31:56;19.90;;;12.73;;
10132;SDS011;5106;50.926;7.080;2022-12-10T01:34:23;18.53;;;13.03;;
10132;SDS011;5106;50.926;7.080;2022-12-10T01:36:50;17.40;;;12.10;;
10132;SDS011;5106;50.926;7.080;2022-12-10T01:39:18;17.10;;;11.70;;
10132;SDS011;5106;50.926;7.080;2022-12-10T01:41:46;18.47;;;11.83;;
10132;SDS011;5106;50.926;7.080;2022-12-10T01:46:46;17.83;;;12.27;;
10132;SDS011;5106;50.926;7.080;2022-12-10T01:49:15;16.73;;;12.43;;
10132;SDS011;5106;50.926;7.080;2022-12-10T01:51:44;16.90;;;12.30;;
10132;SDS011;5106;50.926;7.080;2022-12-10T01:54:20;18.07;;;12.10;;
10132;SDS011;5106;50.926;7.080;2022-12-10T01:56:54;16.27;;;11.70;;
10132;SDS011;5106;50.926;7.080;2022-12-10T01:59:27;17.57;;;12.43;;
10132;SDS011;5106;50.926;7.080;2022-12-10T02:01:59;18.53;;;12.50;;
10132;SDS011;5106;50.926;7.080;2022-12-10T02:07:50;17.90;;;12.67;;
10132;SDS011;5106;50.926;7.080;2022-12-10T02:16:17;18.37;;;12.07;;
10132;SDS011;5106;50.926;7.080;2022-12-10T02:18:51;16.43;;;11.93;;
10132;SDS011;5106;50.926;7.080;2022-12-10T02:21:35;17.40;;;11.97;;
10132;SDS011;5106;50.926;7.080;2022-12-10T02:24:06;17.83;;;11.50;;
10132;SDS011;5106;50.926;7.080;2022-12-10T02:26:43;15.50;;;11.23;;
10132;SDS011;5106;50.926;7.080;2022-12-10T02:29:29;18.67;;;11.60;;
10132;SDS011;5106;50.926;7.080;2022-12-10T02:31:59;16.63;;;11.90;;
10132;SDS011;5106;50.926;7.080;2022-12-10T02:34:33;17.30;;;12.40;;
10132;SDS011;5106;50.926;7.080;2022-12-10T02:37:05;16.27;;;11.13;;
10132;SDS011;5106;50.926;7.080;2022-12-10T02:39:36;17.43;;;12.03;;
10132;SDS011;5106;50.926;7.080;2022-12-10T02:42:04;17.40;;;11.47;;
10132;SDS011;5106;50.926;7.080;2022-12-10T02:44:32;16.83;;;11.27;;
10132;SDS011;5106;50.926;7.080;2022-12-10T02:47:01;21.30;;;12.63;;
10132;SDS011;5106;50.926;7.080;2022-12-10T02:49:28;15.77;;;11.00;;
10132;SDS011;5106;50.926;7.080;2022-12-10T02:51:55;19.67;;;11.60;;
10132;SDS011;5106;50.926;7.080;2022-12-10T02:54:33;17.97;;;11.90;;
10132;SDS011;5106;50.926;7.080;2022-12-10T02:57:00;16.43;;;11.20;;
10132;SDS011;5106;50.926;7.080;2022-12-10T02:59:42;16.10;;;11.37;;
10132;SDS011;5106;50.926;7.080;2022-12-10T03:02:20;17.40;;;11.53;;
10132;SDS011;5106;50.926;7.080;2022-12-10T03:05:09;16.60;;;11.00;;
10132;SDS011;5106;50.926;7.080;2022-12-10T03:10:30;16.47;;;11.00;;
10132;SDS011;5106;50.926;7.080;2022-12-10T03:13:11;15.77;;;10.97;;
10132;SDS011;5106;50.926;7.080;2022-12-10T03:15:40;16.77;;;12.03;;
10132;SDS011;5106;50.926;7.080;2022-12-10T03:18:08;16.53;;;11.53;;
10132;SDS011;5106;50.926;7.080;2022-12-10T03:20:37;17.07;;;11.87;;
10132;SDS011;5106;50.926;7.080;2022-12-10T03:23:08;16.00;;;10.83;;
10132;SDS011;5106;50.926;7.080;2022-12-10T03:25:36;16.97;;;11.77;;
10132;SDS011;5106;50.926;7.080;2022-12-10T03:28:03;16.90;;;11.83;;
10132;SDS011;5106;50.926;7.080;2022-12-10T03:30:30;18.60;;;12.03;;
10132;SDS011;5106;50.926;7.080;2022-12-10T03:32:58;19.25;;;14.18;;
10132;SDS011;5106;50.926;7.080;2022-12-10T03:35:24;18.20;;;12.70;;
10132;SDS011;5106;50.926;7.080;2022-12-10T03:37:50;16.53;;;11.27;;
10132;SDS011;5106;50.926;7.080;2022-12-10T03:40:17;17.70;;;11.87;;
10132;SDS011;5106;50.926;7.080;2022-12-10T03:42:46;18.90;;;12.13;;
10132;SDS011;5106;50.926;7.080;2022-12-10T03:45:11;19.43;;;13.00;;
10132;SDS011;5106;50.926;7.080;2022-12-10T03:47:38;16.10;;;11.30;;
10132;SDS011;5106;50.926;7.080;2022-12-10T03:50:04;17.80;;;12.77;;
10132;SDS011;5106;50.926;7.080;2022-12-10T03:52:30;16.50;;;12.03;;
10132;SDS011;5106;50.926;7.080;2022-12-10T03:54:56;16.83;;;11.40;;
10132;SDS011;5106;50.926;7.080;2022-12-10T03:57:21;18.23;;;12.53;;
10132;SDS011;5106;50.926;7.080;2022-12-10T03:59:47;16.30;;;11.73;;
10132;SDS011;5106;50.926;7.080;2022-12-10T04:02:13;19.47;;;12.87;;
10132;SDS011;5106;50.926;7.080;2022-12-10T04:04:38;18.90;;;12.40;;
10132;SDS011;5106;50.926;7.080;2022-12-10T04:07:04;19.10;;;12.77;;
10132;SDS011;5106;50.926;7.080;2022-12-10T04:09:30;18.23;;;12.53;;
10132;SDS011;5106;50.926;7.080;2022-12-10T04:11:56;17.83;;;12.27;;
10132;SDS011;5106;50.926;7.080;2022-12-10T04:14:22;18.10;;;12.73;;
10132;SDS011;5106;50.926;7.080;2022-12-10T04:17:07;18.10;;;12.80;;
10132;SDS011;5106;50.926;7.080;2022-12-10T04:19:32;21.63;;;13.63;;
10132;SDS011;5106;50.926;7.080;2022-12-10T04:21:58;20.10;;;13.43;;
10132;SDS011;5106;50.926;7.080;2022-12-10T04:24:42;18.73;;;12.80;;
10132;SDS011;5106;50.926;7.080;2022-12-10T04:27:33;22.80;;;14.10;;
10132;SDS011;5106;50.926;7.080;2022-12-10T04:30:02;21.47;;;14.27;;
10132;SDS011;5106;50.926;7.080;2022-12-10T04:32:30;21.27;;;13.03;;
10132;SDS011;5106;50.926;7.080;2022-12-10T04:34:56;21.93;;;14.53;;
10132;SDS011;5106;50.926;7.080;2022-12-10T04:37:22;23.50;;;14.40;;
10132;SDS011;5106;50.926;7.080;2022-12-10T04:39:49;24.20;;;14.50;;
10132;SDS011;5106;50.926;7.080;2022-12-10T04:42:15;23.03;;;14.07;;
10132;SDS011;5106;50.926;7.080;2022-12-10T04:44:41;25.00;;;15.23;;
10132;SDS011;5106;50.926;7.080;2022-12-10T04:47:07;25.97;;;15.73;;
10132;SDS011;5106;50.926;7.080;2022-12-10T04:49:34;25.33;;;15.93;;
10132;SDS011;5106;50.926;7.080;2022-12-10T04:52:00;25.40;;;15.97;;
10132;SDS011;5106;50.926;7.080;2022-12-10T04:54:26;30.20;;;16.80;;
10132;SDS011;5106;50.926;7.080;2022-12-10T04:56:53;27.50;;;16.10;;
10132;SDS011;5106;50.926;7.080;2022-12-10T04:59:18;30.47;;;16.70;;
10132;SDS011;5106;50.926;7.080;2022-12-10T05:01:44;26.17;;;16.13;;
10132;SDS011;5106;50.926;7.080;2022-12-10T05:04:11;28.47;;;16.23;;
10132;SDS011;5106;50.926;7.080;2022-12-10T05:06:39;27.20;;;16.57;;
10132;SDS011;5106;50.926;7.080;2022-12-10T05:09:05;24.57;;;14.67;;
10132;SDS011;5106;50.926;7.080;2022-12-10T05:11:31;29.07;;;15.20;;
10132;SDS011;5106;50.926;7.080;2022-12-10T05:13:58;28.53;;;16.27;;
10132;SDS011;5106;50.926;7.080;2022-12-10T05:16:27;28.37;;;16.07;;
10132;SDS011;5106;50.926;7.080;2022-12-10T05:18:54;29.67;;;16.27;;
10132;SDS011;5106;50.926;7.080;2022-12-10T05:21:21;26.60;;;14.93;;
10132;SDS011;5106;50.926;7.080;2022-12-10T05:23:50;27.97;;;16.67;;
10132;SDS011;5106;50.926;7.080;2022-12-10T05:26:17;27.13;;;15.73;;
10132;SDS011;5106;50.926;7.080;2022-12-10T05:28:44;28.53;;;16.60;;
10132;SDS011;5106;50.926;7.080;2022-12-10T05:31:17;28.47;;;16.17;;
10132;SDS011;5106;50.926;7.080;2022-12-10T05:33:47;28.37;;;16.87;;
10132;SDS011;5106;50.926;7.080;2022-12-10T05:36:13;24.97;;;15.77;;
10132;SDS011;5106;50.926;7.080;2022-12-10T05:38:40;31.83;;;17.67;;
10132;SDS011;5106;50.926;7.080;2022-12-10T05:41:11;27.60;;;16.20;;
10132;SDS011;5106;50.926;7.080;2022-12-10T05:43:38;24.90;;;15.13;;
10132;SDS011;5106;50.926;7.080;2022-12-10T05:46:05;24.03;;;15.80;;
10132;SDS011;5106;50.926;7.080;2022-12-10T05:48:34;24.57;;;15.00;;
10132;SDS011;5106;50.926;7.080;2022-12-10T05:51:07;26.03;;;15.13;;
10132;SDS011;5106;50.926;7.080;2022-12-10T05:53:34;25.07;;;15.10;;
10132;SDS011;5106;50.926;7.080;2022-12-10T05:56:00;26.77;;;16.43;;
10132;SDS011;5106;50.926;7.080;2022-12-10T05:58:27;25.93;;;15.17;;
10132;SDS011;5106;50.926;7.080;2022-12-10T06:00:54;25.43;;;15.50;;
10132;SDS011;5106;50.926;7.080;2022-12-10T06:03:20;26.60;;;15.40;;
10132;SDS011;5106;50.926;7.080;2022-12-10T06:05:46;23.33;;;14.60;;
10132;SDS011;5106;50.926;7.080;2022-12-10T06:08:12;23.73;;;15.03;;
10132;SDS011;5106;50.926;7.080;2022-12-10T06:10:37;23.53;;;14.70;;
10132;SDS011;5106;50.926;7.080;2022-12-10T06:13:03;23.87;;;15.30;;
10132;SDS011;5106;50.926;7.080;2022-12-10T06:15:29;25.10;;;15.73;;
10132;SDS011;5106;50.926;7.080;2022-12-10T06:17:56;24.10;;;14.80;;
10132;SDS011;5106;50.926;7.080;2022-12-10T06:20:22;26.70;;;15.20;;
10132;SDS011;5106;50.926;7.080;2022-12-10T06:22:48;24.37;;;15.17;;
10132;SDS011;5106;50.926;7.080;2022-12-10T06:25:14;25.87;;;15.90;;
10132;SDS011;5106;50.926;7.080;2022-12-10T06:27:39;23.73;;;14.40;;
10132;SDS011;5106;50.926;7.080;2022-12-10T06:30:05;23.93;;;14.20;;
10132;SDS011;5106;50.926;7.080;2022-12-10T06:32:32;21.40;;;14.33;;
10132;SDS011;5106;50.926;7.080;2022-12-10T06:34:57;23.27;;;14.67;;
10132;SDS011;5106;50.926;7.080;2022-12-10T06:37:23;24.13;;;14.60;;
10132;SDS011;5106;50.926;7.080;2022-12-10T06:39:52;23.63;;;14.40;;
10132;SDS011;5106;50.926;7.080;2022-12-10T06:42:18;22.57;;;14.47;;
10132;SDS011;5106;50.926;7.080;2022-12-10T06:44:44;24.60;;;14.63;;
10132;SDS011;5106;50.926;7.080;2022-12-10T06:47:10;22.17;;;14.30;;
10132;SDS011;5106;50.926;7.080;2022-12-10T06:49:36;23.03;;;14.33;;
10132;SDS011;5106;50.926;7.080;2022-12-10T06:52:01;22.90;;;14.03;;
10132;SDS011;5106;50.926;7.080;2022-12-10T06:54:27;22.80;;;14.17;;
10132;SDS011;5106;50.926;7.080;2022-12-10T06:56:53;22.33;;;14.03;;
10132;SDS011;5106;50.926;7.080;2022-12-10T06:59:19;23.30;;;14.77;;
10132;SDS011;5106;50.926;7.080;2022-12-10T07:01:45;25.53;;;14.43;;
10132;SDS011;5106;50.926;7.080;2022-12-10T07:04:11;22.00;;;14.57;;
10132;SDS011;5106;50.926;7.080;2022-12-10T07:06:37;24.93;;;15.23;;
10132;SDS011;5106;50.926;7.080;2022-12-10T07:09:02;22.83;;;14.57;;
10132;SDS011;5106;50.926;7.080;2022-12-10T07:11:28;22.23;;;13.80;;
10132;SDS011;5106;50.926;7.080;2022-12-10T07:13:56;22.17;;;14.17;;
10132;SDS011;5106;50.926;7.080;2022-12-10T07:16:26;24.23;;;15.33;;
10132;SDS011;5106;50.926;7.080;2022-12-10T07:18:54;22.77;;;14.93;;
10132;SDS011;5106;50.926;7.080;2022-12-10T07:21:26;25.07;;;14.07;;
10132;SDS011;5106;50.926;7.080;2022-12-10T07:23:54;24.40;;;13.77;;
10132;SDS011;5106;50.926;7.080;2022-12-10T07:26:23;22.10;;;14.50;;
10132;SDS011;5106;50.926;7.080;2022-12-10T07:28:49;22.73;;;14.30;;
10132;SDS011;5106;50.926;7.080;2022-12-10T07:31:15;26.67;;;14.87;;
10132;SDS011;5106;50.926;7.080;2022-12-10T07:33:41;23.07;;;14.27;;
10132;SDS011;5106;50.926;7.080;2022-12-10T07:36:07;23.80;;;14.00;;
10132;SDS011;5106;50.926;7.080;2022-12-10T07:38:35;24.47;;;14.87;;
10132;SDS011;5106;50.926;7.080;2022-12-10T07:41:04;23.00;;;14.67;;
10132;SDS011;5106;50.926;7.080;2022-12-10T07:43:34;22.73;;;14.00;;
10132;SDS011;5106;50.926;7.080;2022-12-10T07:46:04;23.90;;;14.50;;
10132;SDS011;5106;50.926;7.080;2022-12-10T07:48:30;24.00;;;15.20;;
10132;SDS011;5106;50.926;7.080;2022-12-10T07:50:56;24.13;;;14.23;;
10132;SDS011;5106;50.926;7.080;2022-12-10T07:53:22;24.57;;;14.93;;
10132;SDS011;5106;50.926;7.080;2022-12-10T07:55:48;22.30;;;14.13;;
10132;SDS011;5106;50.926;7.080;2022-12-10T07:58:14;23.63;;;14.57;;
10132;SDS011;5106;50.926;7.080;2022-12-10T08:00:39;24.47;;;15.47;;
10132;SDS011;5106;50.926;7.080;2022-12-10T08:03:05;23.30;;;14.83;;
10132;SDS011;5106;50.926;7.080;2022-12-10T08:05:30;21.97;;;14.57;;
10132;SDS011;5106;50.926;7.080;2022-12-10T08:07:56;23.13;;;14.60;;
10132;SDS011;5106;50.926;7.080;2022-12-10T08:10:21;22.97;;;14.10;;
10132;SDS011;5106;50.926;7.080;2022-12-10T08:12:47;23.80;;;14.53;;
10132;SDS011;5106;50.926;7.080;2022-12-10T08:15:13;23.73;;;14.43;;
10132;SDS011;5106;50.926;7.080;2022-12-10T08:17:38;23.03;;;14.70;;
10132;SDS011;5106;50.926;7.080;2022-12-10T08:20:04;25.20;;;15.33;;
10132;SDS011;5106;50.926;7.080;2022-12-10T08:22:30;23.57;;;15.13;;
10132;SDS011;5106;50.926;7.080;2022-12-10T08:24:55;24.20;;;15.13;;
10132;SDS011;5106;50.926;7.080;2022-12-10T08:27:21;26.13;;;15.67;;
10132;SDS011;5106;50.926;7.080;2022-12-10T08:29:46;24.53;;;14.70;;
10132;SDS011;5106;50.926;7.080;2022-12-10T08:32:12;24.87;;;15.17;;
10132;SDS011;5106;50.926;7.080;2022-12-10T08:34:37;24.73;;;15.10;;
10132;SDS011;5106;50.926;7.080;2022-12-10T08:37:03;22.80;;;14.27;;
10132;SDS011;5106;50.926;7.080;2022-12-10T08:39:29;22.10;;;13.93;;
10132;SDS011;5106;50.926;7.080;2022-12-10T08:41:54;25.63;;;15.77;;
10132;SDS011;5106;50.926;7.080;2022-12-10T08:44:20;23.60;;;15.60;;
10132;SDS011;5106;50.926;7.080;2022-12-10T08:46:45;23.53;;;15.10;;
10132;SDS011;5106;50.926;7.080;2022-12-10T08:49:11;24.20;;;15.20;;
10132;SDS011;5106;50.926;7.080;2022-12-10T08:51:37;25.77;;;15.57;;
10132;SDS011;5106;50.926;7.080;2022-12-10T08:54:03;24.47;;;15.07;;
10132;SDS011;5106;50.926;7.080;2022-12-10T08:56:29;23.37;;;15.30;;
10132;SDS011;5106;50.926;7.080;2022-12-10T08:58:54;26.23;;;15.97;;
10132;SDS011;5106;50.926;7.080;2022-12-10T09:01:20;25.77;;;14.87;;
10132;SDS011;5106;50.926;7.080;2022-12-10T09:03:46;24.40;;;15.50;;
10132;SDS011;5106;50.926;7.080;2022-12-10T09:06:13;23.70;;;15.73;;
10132;SDS011;5106;50.926;7.080;2022-12-10T09:08:41;22.27;;;14.73;;
10132;SDS011;5106;50.926;7.080;2022-12-10T09:11:07;22.53;;;15.20;;
10132;SDS011;5106;50.926;7.080;2022-12-10T09:13:34;22.80;;;15.00;;
10132;SDS011;5106;50.926;7.080;2022-12-10T09:16:00;23.63;;;15.97;;
10132;SDS011;5106;50.926;7.080;2022-12-10T09:18:26;24.43;;;15.17;;
10132;SDS011;5106;50.926;7.080;2022-12-10T09:20:52;23.17;;;15.47;;
10132;SDS011;5106;50.926;7.080;2022-12-10T09:23:17;26.33;;;16.50;;
10132;SDS011;5106;50.926;7.080;2022-12-10T09:25:43;23.27;;;15.20;;
10132;SDS011;5106;50.926;7.080;2022-12-10T09:28:09;23.97;;;15.57;;
10132;SDS011;5106;50.926;7.080;2022-12-10T09:30:34;24.23;;;15.07;;
10132;SDS011;5106;50.926;7.080;2022-12-10T09:33:00;24.87;;;16.60;;
10132;SDS011;5106;50.926;7.080;2022-12-10T09:35:26;24.70;;;15.67;;
10132;SDS011;5106;50.926;7.080;2022-12-10T09:37:51;22.50;;;16.03;;
10132;SDS011;5106;50.926;7.080;2022-12-10T09:40:18;23.07;;;15.07;;
10132;SDS011;5106;50.926;7.080;2022-12-10T09:43:14;23.17;;;15.33;;
10132;SDS011;5106;50.926;7.080;2022-12-10T09:46:02;27.07;;;16.40;;
10132;SDS011;5106;50.926;7.080;2022-12-10T09:51:23;24.13;;;15.20;;
10132;SDS011;5106;50.926;7.080;2022-12-10T09:53:54;24.37;;;15.97;;
10132;SDS011;5106;50.926;7.080;2022-12-10T09:56:42;26.77;;;16.73;;
10132;SDS011;5106;50.926;7.080;2022-12-10T09:59:19;27.00;;;17.10;;
10132;SDS011;5106;50.926;7.080;2022-12-10T10:01:54;25.73;;;16.33;;
10132;SDS011;5106;50.926;7.080;2022-12-10T10:04:40;25.47;;;15.77;;
10132;SDS011;5106;50.926;7.080;2022-12-10T10:07:06;26.87;;;16.77;;
10132;SDS011;5106;50.926;7.080;2022-12-10T10:09:35;24.87;;;16.43;;
10132;SDS011;5106;50.926;7.080;2022-12-10T10:12:09;27.80;;;16.40;;
10132;SDS011;5106;50.926;7.080;2022-12-10T10:14:38;24.73;;;16.87;;
10132;SDS011;5106;50.926;7.080;2022-12-10T10:17:07;25.03;;;16.63;;
10132;SDS011;5106;50.926;7.080;2022-12-10T10:19:39;26.73;;;17.13;;
10132;SDS011;5106;50.926;7.080;2022-12-10T10:22:06;27.07;;;17.17;;
10132;SDS011;5106;50.926;7.080;2022-12-10T10:24:35;24.57;;;16.50;;
10132;SDS011;5106;50.926;7.080;2022-12-10T10:27:15;24.20;;;16.17;;
10132;SDS011;5106;50.926;7.080;2022-12-10T10:29:42;25.30;;;16.10;;
10132;SDS011;5106;50.926;7.080;2022-12-10T10:32:28;27.60;;;17.40;;
10132;SDS011;5106;50.926;7.080;2022-12-10T10:35:01;24.23;;;15.97;;
10132;SDS011;5106;50.926;7.080;2022-12-10T10:37:39;25.43;;;16.87;;
10132;SDS011;5106;50.926;7.080;2022-12-10T10:40:06;22.57;;;14.77;;
10132;SDS011;5106;50.926;7.080;2022-12-10T10:42:46;21.37;;;14.07;;
10132;SDS011;5106;50.926;7.080;2022-12-10T10:50:48;24.53;;;16.23;;
10132;SDS011;5106;50.926;7.080;2022-12-10T10:55:49;27.07;;;16.50;;
10132;SDS011;5106;50.926;7.080;2022-12-10T10:58:18;24.57;;;16.53;;
10132;SDS011;5106;50.926;7.080;2022-12-10T11:00:58;26.57;;;17.00;;
10132;SDS011;5106;50.926;7.080;2022-12-10T11:03:27;24.17;;;15.87;;
10132;SDS011;5106;50.926;7.080;2022-12-10T11:05:56;23.40;;;16.63;;
10132;SDS011;5106;50.926;7.080;2022-12-10T11:08:24;24.57;;;16.90;;
10132;SDS011;5106;50.926;7.080;2022-12-10T11:11:03;24.03;;;16.30;;
10132;SDS011;5106;50.926;7.080;2022-12-10T11:13:32;26.43;;;17.20;;
10132;SDS011;5106;50.926;7.080;2022-12-10T11:18:35;26.67;;;17.80;;
10132;SDS011;5106;50.926;7.080;2022-12-10T11:21:03;23.90;;;17.33;;
10132;SDS011;5106;50.926;7.080;2022-12-10T11:23:42;27.63;;;18.47;;
10132;SDS011;5106;50.926;7.080;2022-12-10T11:35:13;25.40;;;18.17;;
10132;SDS011;5106;50.926;7.080;2022-12-10T11:38:19;26.00;;;17.43;;
10132;SDS011;5106;50.926;7.080;2022-12-10T11:41:07;27.50;;;18.33;;
10132;SDS011;5106;50.926;7.080;2022-12-10T11:54:43;36.03;;;21.80;;
10132;SDS011;5106;50.926;7.080;2022-12-10T11:57:16;38.27;;;23.03;;
10132;SDS011;5106;50.926;7.080;2022-12-10T12:00:36;41.20;;;24.53;;
10132;SDS011;5106;50.926;7.080;2022-12-10T12:06:15;42.23;;;23.70;;
10132;SDS011;5106;50.926;7.080;2022-12-10T12:11:33;41.13;;;24.87;;
10132;SDS011;5106;50.926;7.080;2022-12-10T12:14:38;41.73;;;23.80;;
10132;SDS011;5106;50.926;7.080;2022-12-10T12:17:18;37.87;;;23.17;;
10132;SDS011;5106;50.926;7.080;2022-12-10T12:19:53;36.07;;;21.87;;
10132;SDS011;5106;50.926;7.080;2022-12-10T12:22:24;36.10;;;22.50;;
10132;SDS011;5106;50.926;7.080;2022-12-10T12:25:00;36.40;;;21.83;;
10132;SDS011;5106;50.926;7.080;2022-12-10T12:27:34;28.40;;;18.90;;
10132;SDS011;5106;50.926;7.080;2022-12-10T12:37:56;25.63;;;18.07;;
10132;SDS011;5106;50.926;7.080;2022-12-10T12:45:53;33.57;;;20.87;;
10132;SDS011;5106;50.926;7.080;2022-12-10T12:53:32;32.30;;;19.73;;
10132;SDS011;5106;50.926;7.080;2022-12-10T12:56:07;31.40;;;19.97;;
10132;SDS011;5106;50.926;7.080;2022-12-10T13:01:57;30.27;;;19.97;;
10132;SDS011;5106;50.926;7.080;2022-12-10T13:04:44;29.60;;;19.17;;
10132;SDS011;5106;50.926;7.080;2022-12-10T13:09:43;34.30;;;20.10;;
10132;SDS011;5106;50.926;7.080;2022-12-10T13:12:18;31.37;;;19.97;;
10132;SDS011;5106;50.926;7.080;2022-12-10T13:15:13;29.27;;;19.17;;
10132;SDS011;5106;50.926;7.080;2022-12-10T13:20:44;34.57;;;20.80;;
10132;SDS011;5106;50.926;7.080;2022-12-10T13:23:28;33.83;;;21.17;;
10132;SDS011;5106;50.926;7.080;2022-12-10T13:25:56;31.67;;;19.93;;
10132;SDS011;5106;50.926;7.080;2022-12-10T13:31:08;30.60;;;18.47;;
10132;SDS011;5106;50.926;7.080;2022-12-10T13:34:04;32.33;;;19.77;;
10132;SDS011;5106;50.926;7.080;2022-12-10T13:39:20;28.77;;;18.33;;
10132;SDS011;5106;50.926;7.080;2022-12-10T13:45:35;29.47;;;18.40;;
10132;SDS011;5106;50.926;7.080;2022-12-10T13:47:47;32.13;;;21.07;;
10132;SDS011;5106;50.926;7.080;2022-12-10T13:55:59;30.37;;;18.97;;
10132;SDS011;5106;50.926;7.080;2022-12-10T13:58:50;32.87;;;20.23;;
10132;SDS011;5106;50.926;7.080;2022-12-10T14:01:33;33.10;;;19.17;;
10132;SDS011;5106;50.926;7.080;2022-12-10T14:07:21;30.47;;;19.20;;
10132;SDS011;5106;50.926;7.080;2022-12-10T14:09:51;31.50;;;19.63;;
10132;SDS011;5106;50.926;7.080;2022-12-10T14:12:24;28.17;;;18.73;;
10132;SDS011;5106;50.926;7.080;2022-12-10T14:15:23;30.63;;;19.90;;
10132;SDS011;5106;50.926;7.080;2022-12-10T14:17:52;32.30;;;20.73;;
10132;SDS011;5106;50.926;7.080;2022-12-10T14:20:23;32.07;;;19.87;;
10132;SDS011;5106;50.926;7.080;2022-12-10T14:22:54;30.20;;;20.30;;
10132;SDS011;5106;50.926;7.080;2022-12-10T14:25:43;30.63;;;18.87;;
10132;SDS011;5106;50.926;7.080;2022-12-10T14:28:12;33.20;;;20.53;;
10132;SDS011;5106;50.926;7.080;2022-12-10T14:30:44;33.43;;;20.20;;
10132;SDS011;5106;50.926;7.080;2022-12-10T14:33:18;34.17;;;21.60;;
10132;SDS011;5106;50.926;7.080;2022-12-10T14:35:49;33.03;;;21.03;;
10132;SDS011;5106;50.926;7.080;2022-12-10T14:38:20;36.00;;;20.57;;
10132;SDS011;5106;50.926;7.080;2022-12-10T14:40:52;32.70;;;20.37;;
10132;SDS011;5106;50.926;7.080;2022-12-10T14:43:23;31.00;;;19.20;;
10132;SDS011;5106;50.926;7.080;2022-12-10T14:46:13;32.67;;;20.10;;
10132;SDS011;5106;50.926;7.080;2022-12-10T14:48:50;31.47;;;20.63;;
10132;SDS011;5106;50.926;7.080;2022-12-10T14:51:18;37.80;;;21.53;;
10132;SDS011;5106;50.926;7.080;2022-12-10T14:53:47;34.37;;;21.33;;
10132;SDS011;5106;50.926;7.080;2022-12-10T14:56:30;34.10;;;20.33;;
10132;SDS011;5106;50.926;7.080;2022-12-10T14:59:04;33.20;;;20.73;;
10132;SDS011;5106;50.926;7.080;2022-12-10T15:01:41;32.27;;;20.00;;
10132;SDS011;5106;50.926;7.080;2022-12-10T15:04:13;35.67;;;21.90;;
10132;SDS011;5106;50.926;7.080;2022-12-10T15:06:43;33.83;;;21.80;;
10132;SDS011;5106;50.926;7.080;2022-12-10T15:09:14;33.70;;;20.50;;
10132;SDS011;5106;50.926;7.080;2022-12-10T15:11:51;32.67;;;21.10;;
10132;SDS011;5106;50.926;7.080;2022-12-10T15:14:21;32.77;;;20.73;;
10132;SDS011;5106;50.926;7.080;2022-12-10T15:16:48;32.90;;;20.20;;
10132;SDS011;5106;50.926;7.080;2022-12-10T15:19:21;31.30;;;20.00;;
10132;SDS011;5106;50.926;7.080;2022-12-10T15:21:49;32.47;;;19.43;;
10132;SDS011;5106;50.926;7.080;2022-12-10T15:24:17;35.17;;;20.97;;
10132;SDS011;5106;50.926;7.080;2022-12-10T15:26:50;31.40;;;19.73;;
10132;SDS011;5106;50.926;7.080;2022-12-10T15:31:55;28.73;;;18.30;;
10132;SDS011;5106;50.926;7.080;2022-12-10T15:34:26;29.77;;;19.30;;
10132;SDS011;5106;50.926;7.080;2022-12-10T15:37:00;32.77;;;20.33;;
10132;SDS011;5106;50.926;7.080;2022-12-10T15:39:31;32.07;;;19.70;;
10132;SDS011;5106;50.926;7.080;2022-12-10T15:42:07;29.90;;;19.20;;
10132;SDS011;5106;50.926;7.080;2022-12-10T15:44:40;27.13;;;18.97;;
10132;SDS011;5106;50.926;7.080;2022-12-10T15:47:26;30.33;;;18.17;;
10132;SDS011;5106;50.926;7.080;2022-12-10T15:49:53;28.97;;;18.50;;
10132;SDS011;5106;50.926;7.080;2022-12-10T15:54:55;28.00;;;18.93;;
10132;SDS011;5106;50.926;7.080;2022-12-10T15:59:49;28.67;;;18.90;;
10132;SDS011;5106;50.926;7.080;2022-12-10T16:05:10;26.87;;;17.50;;
10132;SDS011;5106;50.926;7.080;2022-12-10T16:07:41;26.00;;;17.57;;
10132;SDS011;5106;50.926;7.080;2022-12-10T16:10:08;27.17;;;17.77;;
10132;SDS011;5106;50.926;7.080;2022-12-10T16:12:35;28.90;;;18.33;;
10132;SDS011;5106;50.926;7.080;2022-12-10T16:15:02;27.57;;;17.33;;
10132;SDS011;5106;50.926;7.080;2022-12-10T16:17:30;27.80;;;17.83;;
10132;SDS011;5106;50.926;7.080;2022-12-10T16:19:56;25.80;;;17.70;;
10132;SDS011;5106;50.926;7.080;2022-12-10T16:22:24;26.17;;;17.10;;
10132;SDS011;5106;50.926;7.080;2022-12-10T16:24:49;26.23;;;17.33;;
10132;SDS011;5106;50.926;7.080;2022-12-10T16:27:15;24.90;;;16.60;;
10132;SDS011;5106;50.926;7.080;2022-12-10T16:29:41;24.37;;;17.40;;
10132;SDS011;5106;50.926;7.080;2022-12-10T16:32:08;25.73;;;16.67;;
10132;SDS011;5106;50.926;7.080;2022-12-10T16:34:34;27.73;;;17.43;;
10132;SDS011;5106;50.926;7.080;2022-12-10T16:37:00;22.33;;;15.50;;
10132;SDS011;5106;50.926;7.080;2022-12-10T16:39:27;27.07;;;16.63;;